Anchor Point, AK (99556)

12:08 PM AKDT on September 30, 2014 (GMT -0800)
KAKHOMER5 | Change Station
CLOSE
Current Station
Personal Weather Station
Location: Homer, AK
Elevation: 1152 ft
Nearby Weather Stations

Elev 1152 ft 59.67 °N, 151.49 °W | Updated 13 seconds ago

Clear
Clear
45.4 °F
Feels Like 45 °F
N
1.0
Wind Variable Wind from ESE
Gusts 8.0 mph

Today
High -- | Low -- °F
--% Chance of Precip.
Yesterday
High -- | Low -- °F
Precip. -- in
8:10 AM 7:41 PM
Waxing Crescent, 39% visible
Pressure 30.21 in
Visibility 10.0 miles
Clouds Clear
Windchill 45 °F
Dew Point 28 °F
Humidity 50%
Rainfall 0.00 in
Snow Depth 16 in , 1 in , 10 in
UV 2 out of 12
Pollen Not available.
Air Quality Not available.
Flu Activity Not available.
METAR PAHO 301953Z 10004KT 10SM CLR 09/00 A3021 RMK AO2 SLP230 T00940000

More Conditions Fewer Conditions

Pressure 30.21 in
Visibility 10.0 miles
Clouds Clear
Windchill 45 °F
Dew Point 28 °F
Humidity 50%
Rainfall 0.00 in
Snow Depth 16 in , 1 in , 10 in
UV 2 out of 12
Pollen Not available.
Air Quality Not available.
Flu Activity Not available.
METAR PAHO 301953Z 10004KT 10SM CLR 09/00 A3021 RMK AO2 SLP230 T00940000

More Conditions Fewer Conditions

10-Day Weather Forecast

Almanac

Astronomy

Sep. 30, 2014 Rise Set
Actual Time 8:10 AM AKDT 7:41 PM AKDT
Civil Twilight 7:29 AM AKDT 8:22 PM AKDT
Nautical Twilight 6:40 AM AKDT 9:11 PM AKDT
Astronomical Twilight 5:49 AM AKDT 10:02 PM AKDT
Moon 3:38 PM AKDT 11:13 PM AKDT
Length of Visible Light 12h 53m
Length of Day
11h 31m
Tomorrow will be 5m 21s shorter.
Waxing Crescent, 39% of the Moon is Illuminated
Today
Waxing Crescent
Oct 1
First Quarter
Oct 8
Full
Oct 15
Last Quarter
Oct 23
New

Today's Extremes

State Highs State Lows

Community

WunderPhotos

Upload Photos

1,757,736 photos uploaded!

Nearby

Snow Depth

Station Depth Elevation
Atigun Pass 16 in 4800 ft
MF Bradley River 1 in 2300 ft
Upper Chena 10 in 2850 ft
Coldfoot 2 in 1040 ft
Grandview 16 in 1100 ft

Earthquake Activity

City Distance Mag. Time & Date
No recent earthquake activity has been reported nearby.
Minimum magnitude displayed is 2.5.

Coastal Water Temperatures

Place Temperature
No Stations Reporting

Nearby Weather Stations